Dest Fox Harbr Too — ZCXB6 — position and weather

sailwx.info

Track history (hours):
 
Tides and Currents Weather Stations Pressure Air Temp Water Temp Dewpoint Dewpoint Depression Visibility Wind Speed Wind Dir Waves Ship Positions

Dest Fox Harbr Too

Last reported at 2016-Jul-20 14:24 UTC. Time now 2016-Jul-23 21:15 UTC.
Position N 38°28' E 014°58'.

Length 50 m; draft 2.4 m.

Type: Pleasure craft. MMSI: 319370000.

Date/timePositionNaut miles runAvg speedWind from/ knotsBaromVisibWave heightAir tempDewpointWater temp
2016-Jul-20 14:24N 38°28' E 014°58'1111.3
2016-Jul-20 13:23N 38°25' E 015°12'1011.8
2016-Jul-20 12:32N 38°23' E 015°24'1111.3
2016-Jul-20 11:33N 38°19' E 015°38'7 6.6
2016-Jul-20 10:33N 38°13' E 015°37'1111.4
2016-Jul-20 09:33N 38°01' E 015°35'  
2016-Jul-14 22:32N 37°53' E 015°22'1615.9
2016-Jul-14 21:33N 38°06' E 015°33'1514.8
2016-Jul-14 20:34N 38°19' E 015°39'1615.8
2016-Jul-14 19:33N 38°25' E 015°20'18 0.9
2016-Jul-13 22:32N 38°28' E 014°57'7011.5
2016-Jul-13 16:25N 39°38' E 014°53'60 3.3
2016-Jul-12 22:12N 40°32' E 014°17'2 3.4
2016-Jul-12 21:33N 40°32' E 014°14'0 0.0
2016-Jul-12 20:30N 40°32' E 014°14'0 0.0
2016-Jul-12 19:33N 40°32' E 014°14'0 0.0
2016-Jul-12 18:33N 40°32' E 014°14'0 0.0
2016-Jul-12 17:33N 40°32' E 014°14'0 0.0
2016-Jul-12 16:33N 40°32' E 014°14'0 0.0
2016-Jul-12 15:33N 40°32' E 014°14'0 0.0
2016-Jul-12 13:30N 40°32' E 014°14'0 0.0
2016-Jul-12 12:24N 40°32' E 014°14'0 0.0
2016-Jul-12 11:33N 40°32' E 014°14'1 0.9
2016-Jul-12 10:31N 40°33' E 014°15'0 0.0
2016-Jul-12 09:31N 40°33' E 014°15'0 0.0
2016-Jul-12 07:31N 40°33' E 014°15'0 0.0
2016-Jul-12 06:07N 40°33' E 014°15'0 0.0
2016-Jul-12 05:25N 40°33' E 014°15'0 0.0
2016-Jul-12 04:31N 40°33' E 014°15'0 0.0
2016-Jul-12 03:31N 40°33' E 014°15'0 0.0
2016-Jul-12 02:25N 40°33' E 014°15'0 0.0
2016-Jul-12 01:25N 40°33' E 014°15'0 0.0
2016-Jul-12 00:31N 40°33' E 014°15'0 0.0
2016-Jul-11 23:19N 40°33' E 014°15'0 0.0
2016-Jul-11 22:31N 40°33' E 014°15'0 0.0
2016-Jul-11 21:31N 40°33' E 014°15'0 0.0
2016-Jul-11 20:19N 40°33' E 014°15'0 0.0
2016-Jul-11 19:31N 40°33' E 014°15'0 0.0
2016-Jul-11 18:31N 40°33' E 014°15'0 0.0
2016-Jul-11 17:33N 40°33' E 014°15'0 0.4
2016-Jul-11 16:33N 40°34' E 014°15'1312.7
2016-Jul-11 15:33N 40°41' E 014°02'4 3.3
2016-Jul-11 14:21N 40°44' E 013°58'0 0.0
2016-Jul-11 13:33N 40°44' E 013°58'0 0.0
2016-Jul-11 12:33N 40°44' E 013°58'0 0.0
2016-Jul-11 11:33N 40°44' E 013°58'0 0.0
2016-Jul-11 10:33N 40°44' E 013°58'0 0.0
2016-Jul-11 09:33N 40°44' E 013°58'2 2.5
2016-Jul-11 08:33N 40°46' E 013°55'2 1.6
2016-Jul-11 07:31N 40°45' E 013°53'0 0.0
2016-Jul-11 06:31N 40°45' E 013°53'0 0.0
2016-Jul-11 04:31N 40°45' E 013°53'0 0.0
2016-Jul-11 03:19N 40°45' E 013°53'0 0.0
2016-Jul-11 02:19N 40°45' E 013°53'0 0.0
2016-Jul-11 01:25N 40°45' E 013°53'0 0.0
2016-Jul-11 00:25N 40°45' E 013°53'0 0.0
2016-Jul-10 23:31N 40°45' E 013°53'0 0.0
2016-Jul-10 22:31N 40°45' E 013°53'0 0.0
2016-Jul-10 21:31N 40°45' E 013°53'0 0.0
2016-Jul-10 20:25N 40°45' E 013°53'0 0.0
2016-Jul-10 19:31N 40°45' E 013°53'0 0.0
2016-Jul-10 18:33N 40°45' E 013°53'  
Track history (hours):
 
Tides and Currents Weather Stations Pressure Air Temp Water Temp Dewpoint Dewpoint Depression Visibility Wind Speed Wind Dir Waves Ship Positions

Dest Fox Harbr Too

Last reported at 2016-Jul-20 14:24 UTC. Time now 2016-Jul-23 21:15 UTC.
Position N 38°28' E 014°58'.

Length 50 m; draft 2.4 m.

Type: Pleasure craft. MMSI: 319370000.

Date/timePositionNaut miles runAvg speedWind from/ knotsBaromVisibWave heightAir tempDewpointWater temp
2016-Jul-20 14:24N 38°28' E 014°58'1111.3
2016-Jul-20 13:23N 38°25' E 015°12'1011.8
2016-Jul-20 12:32N 38°23' E 015°24'1111.3
2016-Jul-20 11:33N 38°19' E 015°38'7 6.6
2016-Jul-20 10:33N 38°13' E 015°37'1111.4
2016-Jul-20 09:33N 38°01' E 015°35'  
2016-Jul-14 22:32N 37°53' E 015°22'1615.9
2016-Jul-14 21:33N 38°06' E 015°33'1514.8
2016-Jul-14 20:34N 38°19' E 015°39'1615.8
2016-Jul-14 19:33N 38°25' E 015°20'18 0.9
2016-Jul-13 22:32N 38°28' E 014°57'7011.5
2016-Jul-13 16:25N 39°38' E 014°53'60 3.3
2016-Jul-12 22:12N 40°32' E 014°17'2 3.4
2016-Jul-12 21:33N 40°32' E 014°14'0 0.0
2016-Jul-12 20:30N 40°32' E 014°14'0 0.0
2016-Jul-12 19:33N 40°32' E 014°14'0 0.0
2016-Jul-12 18:33N 40°32' E 014°14'0 0.0
2016-Jul-12 17:33N 40°32' E 014°14'0 0.0
2016-Jul-12 16:33N 40°32' E 014°14'0 0.0
2016-Jul-12 15:33N 40°32' E 014°14'0 0.0
2016-Jul-12 13:30N 40°32' E 014°14'0 0.0
2016-Jul-12 12:24N 40°32' E 014°14'0 0.0
2016-Jul-12 11:33N 40°32' E 014°14'1 0.9
2016-Jul-12 10:31N 40°33' E 014°15'0 0.0
2016-Jul-12 09:31N 40°33' E 014°15'0 0.0
2016-Jul-12 07:31N 40°33' E 014°15'0 0.0
2016-Jul-12 06:07N 40°33' E 014°15'0 0.0
2016-Jul-12 05:25N 40°33' E 014°15'0 0.0
2016-Jul-12 04:31N 40°33' E 014°15'0 0.0
2016-Jul-12 03:31N 40°33' E 014°15'0 0.0
2016-Jul-12 02:25N 40°33' E 014°15'0 0.0
2016-Jul-12 01:25N 40°33' E 014°15'0 0.0
2016-Jul-12 00:31N 40°33' E 014°15'0 0.0
2016-Jul-11 23:19N 40°33' E 014°15'0 0.0
2016-Jul-11 22:31N 40°33' E 014°15'0 0.0
2016-Jul-11 21:31N 40°33' E 014°15'0 0.0
2016-Jul-11 20:19N 40°33' E 014°15'0 0.0
2016-Jul-11 19:31N 40°33' E 014°15'0 0.0
2016-Jul-11 18:31N 40°33' E 014°15'0 0.0
2016-Jul-11 17:33N 40°33' E 014°15'0 0.4
2016-Jul-11 16:33N 40°34' E 014°15'1312.7
2016-Jul-11 15:33N 40°41' E 014°02'4 3.3
2016-Jul-11 14:21N 40°44' E 013°58'0 0.0
2016-Jul-11 13:33N 40°44' E 013°58'0 0.0
2016-Jul-11 12:33N 40°44' E 013°58'0 0.0
2016-Jul-11 11:33N 40°44' E 013°58'0 0.0
2016-Jul-11 10:33N 40°44' E 013°58'0 0.0
2016-Jul-11 09:33N 40°44' E 013°58'2 2.5
2016-Jul-11 08:33N 40°46' E 013°55'2 1.6
2016-Jul-11 07:31N 40°45' E 013°53'0 0.0
2016-Jul-11 06:31N 40°45' E 013°53'0 0.0
2016-Jul-11 04:31N 40°45' E 013°53'0 0.0
2016-Jul-11 03:19N 40°45' E 013°53'0 0.0
2016-Jul-11 02:19N 40°45' E 013°53'0 0.0
2016-Jul-11 01:25N 40°45' E 013°53'0 0.0
2016-Jul-11 00:25N 40°45' E 013°53'0 0.0
2016-Jul-10 23:31N 40°45' E 013°53'0 0.0
2016-Jul-10 22:31N 40°45' E 013°53'0 0.0
2016-Jul-10 21:31N 40°45' E 013°53'0 0.0
2016-Jul-10 20:25N 40°45' E 013°53'0 0.0
2016-Jul-10 19:31N 40°45' E 013°53'0 0.0
2016-Jul-10 18:33N 40°45' E 013°53'  

Dump ship's entire track history